Pacific Dove — WDD6365 — position and weather

sailwx.info

Track history (hours):
 
Tides and Currents Weather Stations Pressure Air Temp Water Temp Dewpoint Dewpoint Depression Visibility Wind Speed Wind Dir Waves Ship Positions

Pacific Dove

Owner: Pacific Dove Seafoods Inc., Grayland, WA. More information available from US FCC via Universal Licensing System and Coast Guard Vessel Documentation Center.

Last reported at 2018-May-23 02:30 UTC. Time now 2018-May-23 02:54 UTC.
Position N 47°09' W 124°50'.

Length 24 m.

Type: Fishing. MMSI: 367171980.

Date/timePositionNaut miles runAvg speedWind from/ knotsBaromVisibWave heightAir tempDewpointWater temp
2018-May-23 02:30N 47°09' W 124°50'1 1.3
2018-May-23 02:00N 47°10' W 124°50'1 2.1
2018-May-23 01:29N 47°11' W 124°49'0 0.6
2018-May-23 01:00N 47°11' W 124°49'15 5.1
2018-May-22 21:59N 47°01' W 124°33'3 7.2
2018-May-22 21:30N 46°59' W 124°29'4 7.1
2018-May-22 21:00N 46°58' W 124°24'4 7.5
2018-May-22 20:30N 46°56' W 124°19'4 7.1
2018-May-22 20:00N 46°55' W 124°14'4 8.0
2018-May-22 19:30N 46°55' W 124°08'1 0.5
2018-May-22 16:54N 46°55' W 124°07'0 0.1
2018-May-22 16:25N 46°55' W 124°07'0 0.0
2018-May-22 16:00N 46°55' W 124°07'0 0.0
2018-May-22 15:22N 46°55' W 124°07'0 0.0
2018-May-22 14:59N 46°55' W 124°07'0 0.0
2018-May-22 14:23N 46°55' W 124°07'0 0.0
2018-May-22 12:57N 46°55' W 124°07'0 0.1
2018-May-22 12:30N 46°55' W 124°07'0 0.1
2018-May-22 11:56N 46°55' W 124°07'0 0.1
2018-May-22 11:29N 46°55' W 124°07'0 0.0
2018-May-22 10:26N 46°55' W 124°07'0 0.1
2018-May-22 09:56N 46°55' W 124°07'0 0.1
2018-May-22 09:29N 46°55' W 124°07'0 0.0
2018-May-22 09:00N 46°55' W 124°07'0 0.0
2018-May-22 05:02N 46°55' W 124°07'0 0.3
2018-May-22 04:55N 46°55' W 124°07'0 0.0
2018-May-21 17:53N 46°55' W 124°07'0 0.0
2018-May-21 17:27N 46°55' W 124°07'0 0.0
2018-May-21 17:00N 46°55' W 124°07'0 0.0
2018-May-21 16:30N 46°55' W 124°07'0 0.0
2018-May-21 15:58N 46°55' W 124°07'0 0.0
2018-May-21 15:13N 46°55' W 124°07'0 0.0
2018-May-21 14:59N 46°55' W 124°07'0 0.0
2018-May-21 14:29N 46°55' W 124°07'0 0.0
2018-May-21 14:00N 46°55' W 124°07'0 0.0
2018-May-21 13:25N 46°55' W 124°07'0 0.0
2018-May-21 12:56N 46°55' W 124°07'0 0.0
2018-May-21 12:23N 46°55' W 124°07'0 0.0
2018-May-21 11:44N 46°55' W 124°07'0 0.0
2018-May-21 11:30N 46°55' W 124°07'0 0.0
2018-May-21 10:56N 46°55' W 124°07'0 0.0
2018-May-21 10:29N 46°55' W 124°07'0 0.0
2018-May-21 09:41N 46°55' W 124°07'0 0.0
2018-May-21 09:17N 46°55' W 124°07'0 0.0
2018-May-21 08:58N 46°55' W 124°07'0 0.0
2018-May-21 08:30N 46°55' W 124°07'0 0.5
2018-May-21 07:59N 46°55' W 124°06'3 6.3
2018-May-21 07:30N 46°55' W 124°11'4 7.0
2018-May-21 06:59N 46°55' W 124°16'4 7.3
2018-May-21 06:30N 46°55' W 124°21'4 7.5
2018-May-21 06:00N 46°56' W 124°26'4 7.9
2018-May-21 05:30N 46°57' W 124°32'4 7.7
2018-May-21 05:00N 46°58' W 124°38'1 2.8
2018-May-21 04:30N 46°58' W 124°39'2 4.7
2018-May-21 04:00N 46°59' W 124°43'2 4.8
2018-May-21 03:30N 46°59' W 124°46'2 3.1
2018-May-21 03:00N 46°60' W 124°48'1 0.1
2018-May-20 17:18N 46°60' W 124°49'  
2018-May-16 23:01N 47°05' W 124°46'13 3.2
2018-May-16 18:54N 46°60' W 124°28'4 8.7
2018-May-16 18:29N 46°59' W 124°23'4 9.0
2018-May-16 18:00N 46°57' W 124°17'5 9.1
2018-May-16 17:27N 46°55' W 124°11'3 0.3
2018-May-16 07:39N 46°55' W 124°07'1 3.4
2018-May-16 07:24N 46°55' W 124°08'4 9.2
2018-May-16 07:00N 46°55' W 124°13'4 7.5
2018-May-16 06:30N 46°56' W 124°18'4 7.6
2018-May-16 06:00N 46°57' W 124°23'4 7.9
2018-May-16 05:29N 46°59' W 124°29'11 1.8
2018-May-15 23:07N 47°03' W 124°44'4 2.1
2018-May-15 21:17N 46°59' W 124°44'2 5.7
2018-May-15 21:00N 46°58' W 124°44'3 5.7
2018-May-15 20:30N 46°55' W 124°45'3 5.8
2018-May-15 20:00N 46°52' W 124°45'3 5.8
2018-May-15 19:30N 46°49' W 124°45'1 1.3
2018-May-15 19:00N 46°49' W 124°44'1 1.6
2018-May-15 18:30N 46°49' W 124°43'1 1.7
2018-May-15 17:49N 46°50' W 124°43'1 1.8
2018-May-15 17:30N 46°51' W 124°43'2 3.8
2018-May-15 17:00N 46°50' W 124°46'1 1.2
2018-May-15 16:14N 46°49' W 124°45'0 2.0
2018-May-15 16:00N 46°49' W 124°45'1 1.7
2018-May-15 15:30N 46°48' W 124°44'1 1.4
2018-May-15 15:00N 46°48' W 124°44'1 1.8
2018-May-15 14:30N 46°48' W 124°44'1 1.7
2018-May-15 14:00N 46°49' W 124°43'1 1.8
2018-May-15 13:30N 46°48' W 124°42'2 3.2
2018-May-15 13:00N 46°48' W 124°40'0 0.4
2018-May-15 12:17N 46°48' W 124°40'0 0.3
2018-May-15 12:00N 46°48' W 124°40'0 0.4
2018-May-15 11:30N 46°48' W 124°41'0 0.4
2018-May-15 11:00N 46°48' W 124°41'0 0.5
2018-May-15 10:30N 46°48' W 124°41'0 0.5
2018-May-15 10:00N 46°48' W 124°42'0 0.5
2018-May-15 09:30N 46°47' W 124°42'0 0.6
2018-May-15 09:00N 46°47' W 124°42'0 0.6
2018-May-15 08:30N 46°47' W 124°43'0 0.5
2018-May-15 08:00N 46°47' W 124°43'0 0.5
2018-May-15 07:30N 46°47' W 124°43'0 0.5
2018-May-15 06:44N 46°47' W 124°44'0 0.3
2018-May-15 06:30N 46°47' W 124°44'0 0.4
2018-May-15 06:00N 46°46' W 124°44'0 0.1
2018-May-15 05:30N 46°46' W 124°44'0 0.2
2018-May-15 05:00N 46°46' W 124°44'1 0.8
2018-May-15 04:11N 46°47' W 124°44'1 2.1
2018-May-15 03:47N 46°48' W 124°44'0 0.8
2018-May-15 03:29N 46°48' W 124°44'1 2.0
2018-May-15 02:56N 46°49' W 124°45'1 2.1
2018-May-15 02:29N 46°50' W 124°45'1 1.6
2018-May-15 02:00N 46°50' W 124°46'1 1.7
2018-May-15 01:30N 46°49' W 124°45'1 1.8
2018-May-15 01:00N 46°48' W 124°44'1 1.8
2018-May-15 00:30N 46°47' W 124°44'0 0.4
2018-May-15 00:00N 46°47' W 124°44'1 2.0
2018-May-14 23:30N 46°48' W 124°44'1 1.9
2018-May-14 22:59N 46°49' W 124°44'1 1.7
2018-May-14 22:30N 46°50' W 124°45'1 0.8
2018-May-14 21:44N 46°50' W 124°46'1 2.6
2018-May-14 21:31N 46°49' W 124°46'0 1.0
2018-May-14 20:59N 46°49' W 124°45'1 1.5
2018-May-14 20:30N 46°49' W 124°44'1 1.0
2018-May-14 19:49N 46°49' W 124°45'1 2.0
2018-May-14 19:31N 46°49' W 124°46'1 1.8
2018-May-14 19:00N 46°50' W 124°46'1 1.9
2018-May-14 18:30N 46°51' W 124°45'1 0.9
2018-May-14 17:57N 46°50' W 124°44'1 1.7
2018-May-14 17:30N 46°50' W 124°44'1 1.8
2018-May-14 17:00N 46°49' W 124°44'1 1.8
2018-May-14 16:30N 46°48' W 124°44'1 1.9
2018-May-14 16:00N 46°47' W 124°45'1 1.5
2018-May-14 15:30N 46°47' W 124°44'0 1.0
2018-May-14 15:00N 46°47' W 124°44'1 1.8
2018-May-14 14:30N 46°48' W 124°44'1 1.8
2018-May-14 14:00N 46°49' W 124°44'1 1.6
2018-May-14 13:27N 46°50' W 124°43'1 3.1
2018-May-14 13:00N 46°49' W 124°42'1 1.9
2018-May-14 12:30N 46°49' W 124°41'0 0.1
2018-May-14 12:01N 46°49' W 124°41'0 0.1
2018-May-14 11:30N 46°49' W 124°40'0 0.2
2018-May-14 11:00N 46°49' W 124°40'0 0.2
2018-May-14 10:30N 46°49' W 124°40'0 0.2
2018-May-14 10:00N 46°49' W 124°40'0 0.4
2018-May-14 09:30N 46°49' W 124°41'0 0.5
2018-May-14 09:00N 46°49' W 124°41'0 0.5
2018-May-14 08:30N 46°50' W 124°41'0 0.6
2018-May-14 08:00N 46°50' W 124°42'0 0.8
2018-May-14 07:30N 46°50' W 124°42'0 0.8
2018-May-14 06:56N 46°50' W 124°43'0 0.8
2018-May-14 06:30N 46°50' W 124°43'0 0.8
2018-May-14 06:00N 46°50' W 124°44'0 0.7
2018-May-14 05:30N 46°51' W 124°44'0 0.7
2018-May-14 05:00N 46°51' W 124°45'0 0.6
2018-May-14 04:30N 46°51' W 124°45'1 2.4
2018-May-14 03:59N 46°49' W 124°45'1 2.8
2018-May-14 03:30N 46°48' W 124°44'1 1.2
2018-May-14 02:38N 46°47' W 124°45'0 1.8
2018-May-14 02:30N 46°47' W 124°45'1 1.8
2018-May-14 02:00N 46°46' W 124°44'1 2.0
2018-May-14 01:30N 46°47' W 124°44'1 1.2
2018-May-14 01:00N 46°48' W 124°44'1 1.9
2018-May-14 00:30N 46°49' W 124°45'1 1.9
2018-May-14 00:00N 46°50' W 124°45'1 1.9
2018-May-13 23:30N 46°51' W 124°45'1 2.8
2018-May-13 23:00N 46°52' W 124°45'3 5.8
2018-May-13 22:30N 46°55' W 124°44'3 5.7
2018-May-13 22:00N 46°58' W 124°42'2 4.0
2018-May-13 21:30N 46°59' W 124°42'1 1.1
2018-May-13 21:00N 46°60' W 124°41'1 1.9
2018-May-13 20:30N 47°01' W 124°41'1 2.1
2018-May-13 20:00N 47°02' W 124°41'1 1.2
2018-May-13 19:30N 47°02' W 124°42'1 1.7
2018-May-13 19:00N 47°03' W 124°43'2 1.9
2018-May-13 18:00N 47°05' W 124°44'1 1.4
2018-May-13 17:30N 47°05' W 124°43'1 1.6
2018-May-13 17:00N 47°04' W 124°43'1 2.0
2018-May-13 16:30N 47°04' W 124°45'1 1.3
2018-May-13 16:00N 47°03' W 124°45'1 1.3
2018-May-13 15:30N 47°03' W 124°45'1 1.5
2018-May-13 15:00N 47°02' W 124°44'1 1.8
2018-May-13 14:30N 47°01' W 124°44'1 1.1
2018-May-13 14:00N 47°02' W 124°45'1 2.4
2018-May-13 13:30N 47°03' W 124°44'1 1.4
2018-May-13 13:00N 47°03' W 124°43'1 2.2
2018-May-13 12:30N 47°03' W 124°42'0 0.8
2018-May-13 12:00N 47°03' W 124°41'1 1.0
2018-May-13 11:30N 47°03' W 124°42'0 0.8
2018-May-13 11:00N 47°03' W 124°42'0 0.9
2018-May-13 10:30N 47°04' W 124°43'0 0.8
2018-May-13 10:00N 47°04' W 124°44'0 1.0
2018-May-13 09:29N 47°04' W 124°44'0 0.7
2018-May-13 09:00N 47°04' W 124°45'0 0.8
2018-May-13 08:30N 47°04' W 124°45'0 0.5
2018-May-13 08:00N 47°04' W 124°46'0 0.5
2018-May-13 07:23N 47°04' W 124°46'0 0.5
2018-May-13 07:00N 47°04' W 124°46'0 0.5
2018-May-13 06:26N 47°04' W 124°47'0 0.4
2018-May-13 05:56N 47°04' W 124°47'0 0.4
2018-May-13 05:30N 47°05' W 124°47'0 0.5
2018-May-13 04:45N 47°05' W 124°47'0 0.7
2018-May-13 04:10N 47°05' W 124°47'0 0.7
2018-May-13 03:52N 47°05' W 124°47'0 0.7
2018-May-13 03:28N 47°06' W 124°47'  
Track history (hours):
 
Tides and Currents Weather Stations Pressure Air Temp Water Temp Dewpoint Dewpoint Depression Visibility Wind Speed Wind Dir Waves Ship Positions

Pacific Dove

Owner: Pacific Dove Seafoods Inc., Grayland, WA. More information available from US FCC via Universal Licensing System and Coast Guard Vessel Documentation Center.

Last reported at 2018-May-23 02:30 UTC. Time now 2018-May-23 02:54 UTC.
Position N 47°09' W 124°50'.

Length 24 m.

Type: Fishing. MMSI: 367171980.

Date/timePositionNaut miles runAvg speedWind from/ knotsBaromVisibWave heightAir tempDewpointWater temp
2018-May-23 02:30N 47°09' W 124°50'1 1.3
2018-May-23 02:00N 47°10' W 124°50'1 2.1
2018-May-23 01:29N 47°11' W 124°49'0 0.6
2018-May-23 01:00N 47°11' W 124°49'15 5.1
2018-May-22 21:59N 47°01' W 124°33'3 7.2
2018-May-22 21:30N 46°59' W 124°29'4 7.1
2018-May-22 21:00N 46°58' W 124°24'4 7.5
2018-May-22 20:30N 46°56' W 124°19'4 7.1
2018-May-22 20:00N 46°55' W 124°14'4 8.0
2018-May-22 19:30N 46°55' W 124°08'1 0.5
2018-May-22 16:54N 46°55' W 124°07'0 0.1
2018-May-22 16:25N 46°55' W 124°07'0 0.0
2018-May-22 16:00N 46°55' W 124°07'0 0.0
2018-May-22 15:22N 46°55' W 124°07'0 0.0
2018-May-22 14:59N 46°55' W 124°07'0 0.0
2018-May-22 14:23N 46°55' W 124°07'0 0.0
2018-May-22 12:57N 46°55' W 124°07'0 0.1
2018-May-22 12:30N 46°55' W 124°07'0 0.1
2018-May-22 11:56N 46°55' W 124°07'0 0.1
2018-May-22 11:29N 46°55' W 124°07'0 0.0
2018-May-22 10:26N 46°55' W 124°07'0 0.1
2018-May-22 09:56N 46°55' W 124°07'0 0.1
2018-May-22 09:29N 46°55' W 124°07'0 0.0
2018-May-22 09:00N 46°55' W 124°07'0 0.0
2018-May-22 05:02N 46°55' W 124°07'0 0.3
2018-May-22 04:55N 46°55' W 124°07'0 0.0
2018-May-21 17:53N 46°55' W 124°07'0 0.0
2018-May-21 17:27N 46°55' W 124°07'0 0.0
2018-May-21 17:00N 46°55' W 124°07'0 0.0
2018-May-21 16:30N 46°55' W 124°07'0 0.0
2018-May-21 15:58N 46°55' W 124°07'0 0.0
2018-May-21 15:13N 46°55' W 124°07'0 0.0
2018-May-21 14:59N 46°55' W 124°07'0 0.0
2018-May-21 14:29N 46°55' W 124°07'0 0.0
2018-May-21 14:00N 46°55' W 124°07'0 0.0
2018-May-21 13:25N 46°55' W 124°07'0 0.0
2018-May-21 12:56N 46°55' W 124°07'0 0.0
2018-May-21 12:23N 46°55' W 124°07'0 0.0
2018-May-21 11:44N 46°55' W 124°07'0 0.0
2018-May-21 11:30N 46°55' W 124°07'0 0.0
2018-May-21 10:56N 46°55' W 124°07'0 0.0
2018-May-21 10:29N 46°55' W 124°07'0 0.0
2018-May-21 09:41N 46°55' W 124°07'0 0.0
2018-May-21 09:17N 46°55' W 124°07'0 0.0
2018-May-21 08:58N 46°55' W 124°07'0 0.0
2018-May-21 08:30N 46°55' W 124°07'0 0.5
2018-May-21 07:59N 46°55' W 124°06'3 6.3
2018-May-21 07:30N 46°55' W 124°11'4 7.0
2018-May-21 06:59N 46°55' W 124°16'4 7.3
2018-May-21 06:30N 46°55' W 124°21'4 7.5
2018-May-21 06:00N 46°56' W 124°26'4 7.9
2018-May-21 05:30N 46°57' W 124°32'4 7.7
2018-May-21 05:00N 46°58' W 124°38'1 2.8
2018-May-21 04:30N 46°58' W 124°39'2 4.7
2018-May-21 04:00N 46°59' W 124°43'2 4.8
2018-May-21 03:30N 46°59' W 124°46'2 3.1
2018-May-21 03:00N 46°60' W 124°48'1 0.1
2018-May-20 17:18N 46°60' W 124°49'  
2018-May-16 23:01N 47°05' W 124°46'13 3.2
2018-May-16 18:54N 46°60' W 124°28'4 8.7
2018-May-16 18:29N 46°59' W 124°23'4 9.0
2018-May-16 18:00N 46°57' W 124°17'5 9.1
2018-May-16 17:27N 46°55' W 124°11'3 0.3
2018-May-16 07:39N 46°55' W 124°07'1 3.4
2018-May-16 07:24N 46°55' W 124°08'4 9.2
2018-May-16 07:00N 46°55' W 124°13'4 7.5
2018-May-16 06:30N 46°56' W 124°18'4 7.6
2018-May-16 06:00N 46°57' W 124°23'4 7.9
2018-May-16 05:29N 46°59' W 124°29'11 1.8
2018-May-15 23:07N 47°03' W 124°44'4 2.1
2018-May-15 21:17N 46°59' W 124°44'2 5.7
2018-May-15 21:00N 46°58' W 124°44'3 5.7
2018-May-15 20:30N 46°55' W 124°45'3 5.8
2018-May-15 20:00N 46°52' W 124°45'3 5.8
2018-May-15 19:30N 46°49' W 124°45'1 1.3
2018-May-15 19:00N 46°49' W 124°44'1 1.6
2018-May-15 18:30N 46°49' W 124°43'1 1.7
2018-May-15 17:49N 46°50' W 124°43'1 1.8
2018-May-15 17:30N 46°51' W 124°43'2 3.8
2018-May-15 17:00N 46°50' W 124°46'1 1.2
2018-May-15 16:14N 46°49' W 124°45'0 2.0
2018-May-15 16:00N 46°49' W 124°45'1 1.7
2018-May-15 15:30N 46°48' W 124°44'1 1.4
2018-May-15 15:00N 46°48' W 124°44'1 1.8
2018-May-15 14:30N 46°48' W 124°44'1 1.7
2018-May-15 14:00N 46°49' W 124°43'1 1.8
2018-May-15 13:30N 46°48' W 124°42'2 3.2
2018-May-15 13:00N 46°48' W 124°40'0 0.4
2018-May-15 12:17N 46°48' W 124°40'0 0.3
2018-May-15 12:00N 46°48' W 124°40'0 0.4
2018-May-15 11:30N 46°48' W 124°41'0 0.4
2018-May-15 11:00N 46°48' W 124°41'0 0.5
2018-May-15 10:30N 46°48' W 124°41'0 0.5
2018-May-15 10:00N 46°48' W 124°42'0 0.5
2018-May-15 09:30N 46°47' W 124°42'0 0.6
2018-May-15 09:00N 46°47' W 124°42'0 0.6
2018-May-15 08:30N 46°47' W 124°43'0 0.5
2018-May-15 08:00N 46°47' W 124°43'0 0.5
2018-May-15 07:30N 46°47' W 124°43'0 0.5
2018-May-15 06:44N 46°47' W 124°44'0 0.3
2018-May-15 06:30N 46°47' W 124°44'0 0.4
2018-May-15 06:00N 46°46' W 124°44'0 0.1
2018-May-15 05:30N 46°46' W 124°44'0 0.2
2018-May-15 05:00N 46°46' W 124°44'1 0.8
2018-May-15 04:11N 46°47' W 124°44'1 2.1
2018-May-15 03:47N 46°48' W 124°44'0 0.8
2018-May-15 03:29N 46°48' W 124°44'1 2.0
2018-May-15 02:56N 46°49' W 124°45'1 2.1
2018-May-15 02:29N 46°50' W 124°45'1 1.6
2018-May-15 02:00N 46°50' W 124°46'1 1.7
2018-May-15 01:30N 46°49' W 124°45'1 1.8
2018-May-15 01:00N 46°48' W 124°44'1 1.8
2018-May-15 00:30N 46°47' W 124°44'0 0.4
2018-May-15 00:00N 46°47' W 124°44'1 2.0
2018-May-14 23:30N 46°48' W 124°44'1 1.9
2018-May-14 22:59N 46°49' W 124°44'1 1.7
2018-May-14 22:30N 46°50' W 124°45'1 0.8
2018-May-14 21:44N 46°50' W 124°46'1 2.6
2018-May-14 21:31N 46°49' W 124°46'0 1.0
2018-May-14 20:59N 46°49' W 124°45'1 1.5
2018-May-14 20:30N 46°49' W 124°44'1 1.0
2018-May-14 19:49N 46°49' W 124°45'1 2.0
2018-May-14 19:31N 46°49' W 124°46'1 1.8
2018-May-14 19:00N 46°50' W 124°46'1 1.9
2018-May-14 18:30N 46°51' W 124°45'1 0.9
2018-May-14 17:57N 46°50' W 124°44'1 1.7
2018-May-14 17:30N 46°50' W 124°44'1 1.8
2018-May-14 17:00N 46°49' W 124°44'1 1.8
2018-May-14 16:30N 46°48' W 124°44'1 1.9
2018-May-14 16:00N 46°47' W 124°45'1 1.5
2018-May-14 15:30N 46°47' W 124°44'0 1.0
2018-May-14 15:00N 46°47' W 124°44'1 1.8
2018-May-14 14:30N 46°48' W 124°44'1 1.8
2018-May-14 14:00N 46°49' W 124°44'1 1.6
2018-May-14 13:27N 46°50' W 124°43'1 3.1
2018-May-14 13:00N 46°49' W 124°42'1 1.9
2018-May-14 12:30N 46°49' W 124°41'0 0.1
2018-May-14 12:01N 46°49' W 124°41'0 0.1
2018-May-14 11:30N 46°49' W 124°40'0 0.2
2018-May-14 11:00N 46°49' W 124°40'0 0.2
2018-May-14 10:30N 46°49' W 124°40'0 0.2
2018-May-14 10:00N 46°49' W 124°40'0 0.4
2018-May-14 09:30N 46°49' W 124°41'0 0.5
2018-May-14 09:00N 46°49' W 124°41'0 0.5
2018-May-14 08:30N 46°50' W 124°41'0 0.6
2018-May-14 08:00N 46°50' W 124°42'0 0.8
2018-May-14 07:30N 46°50' W 124°42'0 0.8
2018-May-14 06:56N 46°50' W 124°43'0 0.8
2018-May-14 06:30N 46°50' W 124°43'0 0.8
2018-May-14 06:00N 46°50' W 124°44'0 0.7
2018-May-14 05:30N 46°51' W 124°44'0 0.7
2018-May-14 05:00N 46°51' W 124°45'0 0.6
2018-May-14 04:30N 46°51' W 124°45'1 2.4
2018-May-14 03:59N 46°49' W 124°45'1 2.8
2018-May-14 03:30N 46°48' W 124°44'1 1.2
2018-May-14 02:38N 46°47' W 124°45'0 1.8
2018-May-14 02:30N 46°47' W 124°45'1 1.8
2018-May-14 02:00N 46°46' W 124°44'1 2.0
2018-May-14 01:30N 46°47' W 124°44'1 1.2
2018-May-14 01:00N 46°48' W 124°44'1 1.9
2018-May-14 00:30N 46°49' W 124°45'1 1.9
2018-May-14 00:00N 46°50' W 124°45'1 1.9
2018-May-13 23:30N 46°51' W 124°45'1 2.8
2018-May-13 23:00N 46°52' W 124°45'3 5.8
2018-May-13 22:30N 46°55' W 124°44'3 5.7
2018-May-13 22:00N 46°58' W 124°42'2 4.0
2018-May-13 21:30N 46°59' W 124°42'1 1.1
2018-May-13 21:00N 46°60' W 124°41'1 1.9
2018-May-13 20:30N 47°01' W 124°41'1 2.1
2018-May-13 20:00N 47°02' W 124°41'1 1.2
2018-May-13 19:30N 47°02' W 124°42'1 1.7
2018-May-13 19:00N 47°03' W 124°43'2 1.9
2018-May-13 18:00N 47°05' W 124°44'1 1.4
2018-May-13 17:30N 47°05' W 124°43'1 1.6
2018-May-13 17:00N 47°04' W 124°43'1 2.0
2018-May-13 16:30N 47°04' W 124°45'1 1.3
2018-May-13 16:00N 47°03' W 124°45'1 1.3
2018-May-13 15:30N 47°03' W 124°45'1 1.5
2018-May-13 15:00N 47°02' W 124°44'1 1.8
2018-May-13 14:30N 47°01' W 124°44'1 1.1
2018-May-13 14:00N 47°02' W 124°45'1 2.4
2018-May-13 13:30N 47°03' W 124°44'1 1.4
2018-May-13 13:00N 47°03' W 124°43'1 2.2
2018-May-13 12:30N 47°03' W 124°42'0 0.8
2018-May-13 12:00N 47°03' W 124°41'1 1.0
2018-May-13 11:30N 47°03' W 124°42'0 0.8
2018-May-13 11:00N 47°03' W 124°42'0 0.9
2018-May-13 10:30N 47°04' W 124°43'0 0.8
2018-May-13 10:00N 47°04' W 124°44'0 1.0
2018-May-13 09:29N 47°04' W 124°44'0 0.7
2018-May-13 09:00N 47°04' W 124°45'0 0.8
2018-May-13 08:30N 47°04' W 124°45'0 0.5
2018-May-13 08:00N 47°04' W 124°46'0 0.5
2018-May-13 07:23N 47°04' W 124°46'0 0.5
2018-May-13 07:00N 47°04' W 124°46'0 0.5
2018-May-13 06:26N 47°04' W 124°47'0 0.4
2018-May-13 05:56N 47°04' W 124°47'0 0.4
2018-May-13 05:30N 47°05' W 124°47'0 0.5
2018-May-13 04:45N 47°05' W 124°47'0 0.7
2018-May-13 04:10N 47°05' W 124°47'0 0.7
2018-May-13 03:52N 47°05' W 124°47'0 0.7
2018-May-13 03:28N 47°06' W 124°47'  

Dump ship's entire track history